createdAt,value
2019-02-10T00:00:42.077Z,66.03
2019-02-10T00:03:13.510Z,67.80
2019-02-10T00:05:46.147Z,70.63
2019-02-10T00:08:18.680Z,71.67
2019-02-10T00:10:50.906Z,67.67
2019-02-10T00:13:37.377Z,69.07
2019-02-10T00:16:17.804Z,71.10
2019-02-10T00:18:49.556Z,64.90
2019-02-10T00:21:20.833Z,69.57
2019-02-10T00:23:52.512Z,65.93
2019-02-10T00:26:23.723Z,70.90
2019-02-10T00:28:54.633Z,66.07
2019-02-10T00:31:26.725Z,70.10
2019-02-10T00:33:58.716Z,69.60
2019-02-10T00:36:33.363Z,70.73
2019-02-10T00:39:05.098Z,70.07
2019-02-10T00:41:36.616Z,66.90
2019-02-10T00:44:08.204Z,70.17
2019-02-10T00:46:39.805Z,63.93
2019-02-10T00:49:11.495Z,60.23
2019-02-10T00:51:43.139Z,71.67
2019-02-10T00:54:14.551Z,66.07
2019-02-10T00:56:46.202Z,59.97
2019-02-10T00:59:17.441Z,61.67
2019-02-10T01:01:48.653Z,68.33
2019-02-10T01:04:20.181Z,66.97
2019-02-10T01:06:51.070Z,65.10
2019-02-10T01:09:22.346Z,61.27
2019-02-10T01:11:53.494Z,63.43
2019-02-10T01:14:25.593Z,58.00
2019-02-10T01:16:56.875Z,60.20
2019-02-10T01:19:28.466Z,56.63
2019-02-10T01:21:59.680Z,58.17
2019-02-10T01:24:31.109Z,58.73
2019-02-10T01:27:02.603Z,65.20
2019-02-10T01:29:33.964Z,62.83
2019-02-10T01:32:04.869Z,60.47
2019-02-10T01:34:36.210Z,60.63
2019-02-10T01:37:08.493Z,61.63
2019-02-10T01:39:39.223Z,61.53
2019-02-10T01:42:09.937Z,59.57
2019-02-10T01:44:40.654Z,59.07
2019-02-10T01:47:12.275Z,55.70
2019-02-10T01:49:43.730Z,54.30
2019-02-10T01:52:14.593Z,57.37
2019-02-10T01:54:45.257Z,60.43
2019-02-10T01:57:16.139Z,60.47
2019-02-10T01:59:46.936Z,57.83
2019-02-10T02:02:17.802Z,61.00
2019-02-10T02:04:48.663Z,55.40
2019-02-10T02:07:19.678Z,54.80
2019-02-10T02:09:50.376Z,53.37
2019-02-10T02:12:21.018Z,59.53
2019-02-10T02:14:51.775Z,53.67
2019-02-10T02:17:22.822Z,56.23
2019-02-10T02:19:54.244Z,55.87
2019-02-10T02:22:25.782Z,56.40
2019-02-10T02:24:56.469Z,51.40
2019-02-10T02:27:27.115Z,52.67
2019-02-10T02:29:58.211Z,55.33
2019-02-10T02:32:29.307Z,53.30
2019-02-10T02:35:00.584Z,55.47
2019-02-10T02:37:31.815Z,52.30
2019-02-10T02:40:03.356Z,49.90
2019-02-10T02:42:34.623Z,53.93
2019-02-10T02:45:07.667Z,55.87
2019-02-10T02:47:37.898Z,52.80
2019-02-10T02:50:11.226Z,53.30
2019-02-10T02:52:42.133Z,49.07
2019-02-10T02:55:13.349Z,54.73
2019-02-10T02:57:44.069Z,48.97
2019-02-10T03:00:14.660Z,51.60
2019-02-10T03:02:45.612Z,50.97
2019-02-10T03:05:16.397Z,47.60
2019-02-10T03:07:48.134Z,56.00
2019-02-10T03:10:19.589Z,54.20
2019-02-10T03:12:50.421Z,51.87
2019-02-10T03:15:21.414Z,53.97
2019-02-10T03:17:52.129Z,53.97
2019-02-10T03:20:22.788Z,54.40
2019-02-10T03:22:54.633Z,56.03
2019-02-10T03:25:26.464Z,51.90
2019-02-10T03:27:57.820Z,53.53
2019-02-10T03:30:29.338Z,53.23
2019-02-10T03:33:00.794Z,56.13
2019-02-10T03:35:31.760Z,52.63
2019-02-10T03:38:02.827Z,51.37
2019-02-10T03:40:35.169Z,55.60
2019-02-10T03:43:06.418Z,52.90
2019-02-10T03:45:37.297Z,52.17
2019-02-10T03:48:08.908Z,52.57
2019-02-10T03:50:40.291Z,50.77
2019-02-10T03:53:11.401Z,47.70
2019-02-10T03:55:43.075Z,55.20
2019-02-10T03:58:14.714Z,51.77
2019-02-10T04:00:46.486Z,52.67
2019-02-10T04:03:18.084Z,64.17
2019-02-10T04:05:49.455Z,48.93
2019-02-10T04:08:21.465Z,51.77
2019-02-10T04:10:53.221Z,48.43
2019-02-10T04:13:24.821Z,54.73
2019-02-10T04:15:56.534Z,54.83
2019-02-10T04:18:28.092Z,53.20
2019-02-10T04:20:58.679Z,51.57
2019-02-10T04:23:29.570Z,55.20
2019-02-10T04:26:00.900Z,57.13
2019-02-10T04:28:32.219Z,51.47
2019-02-10T04:31:03.894Z,84.30
2019-02-10T04:33:34.936Z,63.67
2019-02-10T04:36:05.620Z,59.57
2019-02-10T04:38:37.288Z,63.27
2019-02-10T04:41:08.278Z,57.17
2019-02-10T04:43:39.521Z,59.03
2019-02-10T04:46:10.442Z,58.03
2019-02-10T04:48:41.272Z,61.60
2019-02-10T04:51:12.231Z,60.53
2019-02-10T04:53:43.213Z,61.17
2019-02-10T04:56:19.637Z,118.77
2019-02-10T04:58:50.597Z,62.37
2019-02-10T05:01:22.009Z,58.23
2019-02-10T05:03:53.307Z,62.67
2019-02-10T05:06:43.647Z,55.83
2019-02-10T05:09:15.234Z,59.57
2019-02-10T05:11:46.544Z,56.53
2019-02-10T05:14:17.793Z,53.47
2019-02-10T05:16:49.376Z,51.40
2019-02-10T05:19:20.918Z,51.50
2019-02-10T05:21:52.326Z,52.27
2019-02-10T05:24:23.760Z,56.20
2019-02-10T05:26:55.009Z,52.77
2019-02-10T05:29:26.019Z,55.70
2019-02-10T05:31:57.149Z,54.23
2019-02-10T05:34:30.451Z,54.57
2019-02-10T05:37:01.183Z,93.33
2019-02-10T05:39:32.479Z,187.30
2019-02-10T05:42:04.034Z,59.17
2019-02-10T05:44:35.644Z,52.77
2019-02-10T05:47:07.677Z,51.47
2019-02-10T05:49:39.319Z,52.40
2019-02-10T05:52:12.299Z,55.57
2019-02-10T05:54:43.637Z,52.17
2019-02-10T05:57:14.699Z,53.17
2019-02-10T05:59:46.025Z,52.33
2019-02-10T06:02:28.781Z,52.37
2019-02-10T06:05:12.986Z,53.27
2019-02-10T06:07:44.168Z,53.90
2019-02-10T06:10:15.858Z,54.77
2019-02-10T06:12:47.209Z,53.90
2019-02-10T06:15:19.020Z,55.33
2019-02-10T06:17:49.534Z,51.47
2019-02-10T06:20:20.228Z,58.63
2019-02-10T06:22:50.806Z,63.83
2019-02-10T06:25:21.496Z,58.50
2019-02-10T06:27:52.181Z,66.67
2019-02-10T06:30:22.842Z,59.63
2019-02-10T06:32:53.569Z,60.70
2019-02-10T06:35:24.435Z,135.63
2019-02-10T06:37:54.937Z,72.27
2019-02-10T06:40:25.873Z,61.37
2019-02-10T06:42:56.771Z,66.67
2019-02-10T06:45:27.533Z,66.13
2019-02-10T06:48:01.141Z,73.57
2019-02-10T06:50:33.161Z,64.63
2019-02-10T06:53:23.468Z,68.63
2019-02-10T06:55:54.053Z,66.17
2019-02-10T06:58:25.346Z,70.50
2019-02-10T07:01:33.026Z,72.90
2019-02-10T07:04:19.742Z,66.70
2019-02-10T07:06:50.444Z,77.50
2019-02-10T07:09:21.153Z,72.13
2019-02-10T07:11:51.793Z,74.93
2019-02-10T07:14:31.584Z,78.20
2019-02-10T07:17:27.974Z,77.93
2019-02-10T07:20:24.314Z,83.30
2019-02-10T07:23:40.711Z,98.50
2019-02-10T07:26:22.014Z,86.33
2019-02-10T07:29:13.674Z,92.80
2019-02-10T07:32:02.294Z,91.77
2019-02-10T07:35:05.944Z,84.03
2019-02-10T07:37:48.770Z,77.60
2019-02-10T07:41:05.927Z,80.20
2019-02-10T07:44:11.713Z,83.10
2019-02-10T07:47:07.903Z,74.23
2019-02-10T07:50:20.759Z,80.73
2019-02-10T07:53:16.369Z,74.80
2019-02-10T07:56:28.899Z,77.33
2019-02-10T07:59:21.809Z,68.57
2019-02-10T08:02:31.943Z,64.03
2019-02-10T08:05:32.423Z,61.20
2019-02-10T08:08:46.445Z,57.70
2019-02-10T08:11:38.879Z,54.30
2019-02-10T08:14:36.002Z,59.77
2019-02-10T08:17:59.237Z,58.73
2019-02-10T08:21:11.220Z,55.47
2019-02-10T08:24:37.815Z,56.90
2019-02-10T08:27:26.976Z,53.53
2019-02-10T08:30:17.009Z,54.60
2019-02-10T08:33:30.286Z,54.73
2019-02-10T08:36:29.826Z,52.60
2019-02-10T08:39:56.068Z,52.00
2019-02-10T08:42:51.124Z,48.17
2019-02-10T08:45:49.006Z,59.43
2019-02-10T08:49:09.431Z,54.23
2019-02-10T08:52:39.205Z,53.03
2019-02-10T08:55:09.954Z,53.90
2019-02-10T08:57:40.507Z,52.30
2019-02-10T09:00:11.985Z,48.83
2019-02-10T09:02:43.137Z,43.90
2019-02-10T09:05:13.977Z,50.83
2019-02-10T09:07:44.904Z,47.30
2019-02-10T09:10:15.900Z,51.47
2019-02-10T09:12:46.775Z,51.53
2019-02-10T09:15:17.767Z,50.17
2019-02-10T09:17:48.741Z,45.87
2019-02-10T09:20:19.855Z,48.00
2019-02-10T09:22:50.785Z,49.63
2019-02-10T09:25:21.528Z,53.97
2019-02-10T09:27:52.401Z,48.80
2019-02-10T09:30:23.220Z,55.90
2019-02-10T09:32:53.958Z,56.27
2019-02-10T09:35:25.086Z,55.60
2019-02-10T09:37:55.758Z,55.30
2019-02-10T09:40:26.684Z,61.07
2019-02-10T09:42:57.601Z,58.50
2019-02-10T09:45:28.451Z,56.43
2019-02-10T09:47:59.087Z,58.53
2019-02-10T09:50:29.843Z,58.30
2019-02-10T09:53:00.769Z,61.23
2019-02-10T09:55:32.253Z,58.20
2019-02-10T09:58:03.817Z,53.47
2019-02-10T10:00:34.946Z,59.00
2019-02-10T10:03:06.111Z,56.77
2019-02-10T10:05:37.426Z,55.83
2019-02-10T10:08:08.913Z,54.80
2019-02-10T10:10:40.242Z,54.03
2019-02-10T10:13:11.135Z,53.33
2019-02-10T10:15:43.447Z,54.03
2019-02-10T10:18:14.413Z,56.30
2019-02-10T10:21:09.184Z,54.17
2019-02-10T10:23:39.930Z,50.83
2019-02-10T10:26:11.507Z,52.47
2019-02-10T10:28:42.334Z,54.93
2019-02-10T10:31:12.998Z,51.40
2019-02-10T10:33:43.665Z,56.83
2019-02-10T10:36:14.249Z,51.53
2019-02-10T10:38:44.804Z,50.93
2019-02-10T10:41:15.611Z,51.50
2019-02-10T10:43:46.400Z,51.70
2019-02-10T10:46:17.221Z,47.00
2019-02-10T10:48:48.119Z,51.50
2019-02-10T10:51:18.936Z,47.20
2019-02-10T10:53:49.551Z,42.37
2019-02-10T10:56:20.148Z,45.23
2019-02-10T10:58:50.766Z,41.90
2019-02-10T11:01:25.382Z,42.63
2019-02-10T11:03:54.406Z,38.70
2019-02-10T11:06:25.503Z,38.10
2019-02-10T11:08:56.234Z,35.47
2019-02-10T11:11:27.485Z,39.10
2019-02-10T11:14:00.013Z,42.53
2019-02-10T11:16:30.642Z,42.97
2019-02-10T11:19:02.666Z,45.17
2019-02-10T11:21:33.302Z,43.63
2019-02-10T11:24:04.315Z,40.77
2019-02-10T11:26:35.206Z,43.93
2019-02-10T11:29:10.447Z,45.20
2019-02-10T11:31:41.013Z,46.13
2019-02-10T11:34:11.893Z,45.87
2019-02-10T11:36:42.522Z,37.47
2019-02-10T11:39:13.944Z,42.47
2019-02-10T11:41:44.624Z,40.17
2019-02-10T11:44:15.321Z,38.57
2019-02-10T11:46:45.899Z,35.30
2019-02-10T11:49:19.653Z,42.93
2019-02-10T11:51:50.291Z,38.83
2019-02-10T11:54:21.028Z,40.27
2019-02-10T11:56:51.644Z,43.90
2019-02-10T11:59:22.177Z,39.90
2019-02-10T12:01:53.206Z,42.50
2019-02-10T12:04:24.211Z,38.63
2019-02-10T12:06:55.090Z,39.23
2019-02-10T12:09:26.321Z,42.80
2019-02-10T12:12:00.233Z,37.77
2019-02-10T12:14:31.150Z,39.67
2019-02-10T12:17:01.656Z,38.47
2019-02-10T12:19:32.256Z,36.47
2019-02-10T12:22:02.898Z,37.00
2019-02-10T12:24:33.536Z,34.70
2019-02-10T12:27:04.474Z,35.70
2019-02-10T12:29:35.289Z,37.30
2019-02-10T12:32:06.077Z,36.97
2019-02-10T12:34:36.793Z,33.60
2019-02-10T12:37:07.684Z,35.30
2019-02-10T12:39:38.349Z,35.80
2019-02-10T12:42:09.340Z,32.57
2019-02-10T12:44:39.896Z,35.03
2019-02-10T12:47:10.405Z,32.13
2019-02-10T12:49:41.085Z,32.63
2019-02-10T12:52:11.795Z,34.30
2019-02-10T12:54:42.416Z,33.67
2019-02-10T12:57:12.967Z,34.17
2019-02-10T12:59:43.534Z,33.67
2019-02-10T13:02:14.209Z,32.07
2019-02-10T13:04:44.988Z,35.73
2019-02-10T13:07:15.627Z,34.33
2019-02-10T13:09:46.272Z,34.87
2019-02-10T13:12:16.886Z,33.67
2019-02-10T13:14:47.589Z,37.43
2019-02-10T13:17:18.048Z,34.37
2019-02-10T13:19:48.648Z,32.60
2019-02-10T13:22:19.345Z,30.63
2019-02-10T13:24:50.063Z,33.07
2019-02-10T13:27:20.954Z,33.43
2019-02-10T13:29:51.627Z,35.90
2019-02-10T13:32:22.213Z,35.20
2019-02-10T13:34:52.936Z,34.53
2019-02-10T13:37:23.514Z,35.70
2019-02-10T13:39:54.162Z,35.33
2019-02-10T13:42:24.850Z,36.63
2019-02-10T13:44:55.551Z,38.50
2019-02-10T13:47:26.081Z,35.87
2019-02-10T13:49:56.723Z,35.10
2019-02-10T13:52:27.323Z,32.10
2019-02-10T13:54:58.142Z,38.57
2019-02-10T13:57:28.731Z,35.47
2019-02-10T13:59:59.314Z,34.27
2019-02-10T14:02:30.083Z,33.13
2019-02-10T14:05:00.756Z,34.47
2019-02-10T14:07:31.326Z,33.50
2019-02-10T14:10:02.000Z,31.53
2019-02-10T14:12:32.680Z,30.93
2019-02-10T14:15:03.377Z,30.90
2019-02-10T14:17:33.929Z,31.93
2019-02-10T14:20:04.725Z,33.37
2019-02-10T14:22:35.232Z,32.10
2019-02-10T14:25:06.088Z,33.20
2019-02-10T14:27:36.989Z,31.43
2019-02-10T14:30:10.403Z,35.00
2019-02-10T14:32:41.060Z,30.30
2019-02-10T14:35:11.639Z,31.80
2019-02-10T14:37:42.164Z,33.57
2019-02-10T14:40:14.788Z,32.93
2019-02-10T14:42:45.487Z,32.17
2019-02-10T14:45:16.123Z,30.93
2019-02-10T14:47:46.741Z,29.97
2019-02-10T14:50:18.584Z,32.40
2019-02-10T14:52:49.238Z,31.90
2019-02-10T14:55:19.889Z,34.10
2019-02-10T14:57:50.394Z,29.93
2019-02-10T15:00:21.060Z,34.67
2019-02-10T15:02:51.767Z,32.63
2019-02-10T15:05:22.412Z,33.13
2019-02-10T15:07:53.034Z,33.47
2019-02-10T15:10:23.768Z,30.93
2019-02-10T15:12:54.425Z,33.67
2019-02-10T15:15:25.287Z,30.80
2019-02-10T15:17:56.153Z,34.33
2019-02-10T15:20:27.108Z,34.33
2019-02-10T15:22:58.595Z,33.53
2019-02-10T15:25:29.497Z,35.93
2019-02-10T15:28:00.280Z,33.40
2019-02-10T15:30:31.122Z,36.87
2019-02-10T15:33:01.924Z,31.87
2019-02-10T15:35:34.039Z,31.77
2019-02-10T15:38:06.467Z,33.73
2019-02-10T15:40:37.815Z,36.30
2019-02-10T15:43:09.454Z,32.80
2019-02-10T15:45:40.366Z,33.53
2019-02-10T15:48:11.077Z,34.73
2019-02-10T15:50:42.087Z,33.13
2019-02-10T15:53:13.055Z,33.20
2019-02-10T15:55:43.613Z,34.67
2019-02-10T15:58:14.220Z,34.07
2019-02-10T16:00:44.951Z,36.90
2019-02-10T16:03:15.651Z,39.77
2019-02-10T16:05:46.334Z,38.07
2019-02-10T16:08:17.071Z,39.30
2019-02-10T16:10:47.689Z,38.17
2019-02-10T16:13:18.489Z,35.73
2019-02-10T16:15:49.142Z,37.30
2019-02-10T16:18:19.685Z,42.80
2019-02-10T16:20:50.312Z,41.87
2019-02-10T16:23:20.888Z,41.03
2019-02-10T16:25:51.484Z,43.40
2019-02-10T16:28:22.113Z,47.67
2019-02-10T16:30:52.989Z,61.57
2019-02-10T16:33:23.575Z,58.93
2019-02-10T16:35:54.175Z,49.23
2019-02-10T16:38:25.131Z,54.10
2019-02-10T16:40:55.689Z,50.80
2019-02-10T16:43:26.720Z,57.93
2019-02-10T16:45:57.331Z,55.00
2019-02-10T16:48:27.859Z,48.27
2019-02-10T16:50:58.733Z,53.17
2019-02-10T16:53:29.464Z,55.07
2019-02-10T16:56:00.057Z,57.00
2019-02-10T16:58:30.645Z,47.40
2019-02-10T17:01:01.259Z,47.73
2019-02-10T17:03:31.817Z,46.80
2019-02-10T17:06:02.474Z,54.00
2019-02-10T17:08:33.072Z,49.57
2019-02-10T17:11:03.687Z,48.60
2019-02-10T17:13:34.377Z,43.70
2019-02-10T17:16:05.474Z,46.20
2019-02-10T17:18:36.189Z,46.23
2019-02-10T17:21:07.421Z,42.87
2019-02-10T17:23:38.181Z,46.33
2019-02-10T17:26:10.011Z,45.60
2019-02-10T17:28:40.702Z,41.93
2019-02-10T17:31:12.392Z,42.67
2019-02-10T17:33:43.141Z,40.00
2019-02-10T17:36:13.760Z,37.47
2019-02-10T17:38:44.389Z,42.57
2019-02-10T17:41:22.827Z,45.27
2019-02-10T17:43:54.692Z,45.93
2019-02-10T17:46:25.412Z,45.80
2019-02-10T17:48:56.096Z,44.57
2019-02-10T17:51:26.759Z,54.83
2019-02-10T17:53:57.488Z,49.20
2019-02-10T17:56:29.236Z,50.93
2019-02-10T17:58:59.836Z,57.10
2019-02-10T18:01:30.532Z,49.87
2019-02-10T18:04:01.297Z,52.20
2019-02-10T18:06:31.900Z,54.43
2019-02-10T18:09:02.976Z,52.17
2019-02-10T18:11:34.131Z,57.77
2019-02-10T18:14:09.918Z,57.60
2019-02-10T18:16:59.404Z,56.73
2019-02-10T18:19:51.845Z,59.53
2019-02-10T18:22:39.912Z,60.90
2019-02-10T18:25:25.982Z,63.83
2019-02-10T18:28:30.838Z,57.53
2019-02-10T18:31:17.738Z,60.17
2019-02-10T18:33:59.809Z,55.53
2019-02-10T18:36:47.276Z,66.87
2019-02-10T18:39:25.872Z,66.83
2019-02-10T18:42:20.788Z,64.20
2019-02-10T18:45:13.435Z,62.80
2019-02-10T18:47:58.461Z,65.40
2019-02-10T18:50:48.924Z,66.97
2019-02-10T18:53:41.427Z,60.70
2019-02-10T18:56:45.925Z,60.63
2019-02-10T18:59:35.437Z,62.20
2019-02-10T19:02:23.617Z,61.10
2019-02-10T19:05:13.101Z,59.47
2019-02-10T19:08:01.333Z,59.23
2019-02-10T19:10:59.819Z,53.60
2019-02-10T19:13:48.041Z,52.40
2019-02-10T19:16:35.403Z,54.50
2019-02-10T19:19:23.919Z,57.37
2019-02-10T19:22:22.417Z,53.30
2019-02-10T19:25:06.112Z,58.07
2019-02-10T19:27:56.003Z,55.80
2019-02-10T19:30:48.980Z,57.70
2019-02-10T19:33:50.440Z,49.83
2019-02-10T19:36:51.943Z,49.87
2019-02-10T19:39:44.400Z,54.73
2019-02-10T19:42:43.616Z,53.57
2019-02-10T19:45:48.311Z,62.33
2019-02-10T19:48:32.381Z,59.37
2019-02-10T19:51:27.237Z,64.87
2019-02-10T19:54:28.970Z,60.57
2019-02-10T19:57:18.376Z,62.27
2019-02-10T20:00:04.609Z,63.10
2019-02-10T20:03:01.321Z,63.40
2019-02-10T20:05:56.834Z,63.23
2019-02-10T20:08:46.293Z,57.10
2019-02-10T20:11:44.877Z,58.00
2019-02-10T20:14:52.951Z,58.33
2019-02-10T20:17:54.363Z,64.93
2019-02-10T20:20:34.044Z,65.63
2019-02-10T20:23:23.816Z,70.40
2019-02-10T20:26:16.227Z,64.27
2019-02-10T20:29:08.029Z,66.20
2019-02-10T20:31:57.742Z,74.10
2019-02-10T20:34:46.378Z,74.20
2019-02-10T20:37:42.294Z,71.13
2019-02-10T20:40:41.586Z,79.23
2019-02-10T20:43:31.357Z,79.07
2019-02-10T20:46:09.762Z,80.10
2019-02-10T20:49:12.213Z,78.73
2019-02-10T20:52:01.697Z,77.07
2019-02-10T20:54:47.414Z,77.10
2019-02-10T20:57:48.891Z,72.57
2019-02-10T21:00:38.444Z,77.97
2019-02-10T21:03:14.725Z,69.40
2019-02-10T21:06:16.124Z,80.00
2019-02-10T21:09:10.221Z,74.47
2019-02-10T21:12:03.122Z,74.07
2019-02-10T21:15:03.674Z,79.90
2019-02-10T21:17:43.894Z,78.60
2019-02-10T21:20:43.947Z,75.00
2019-02-10T21:23:26.897Z,80.67
2019-02-10T21:26:06.677Z,77.13
2019-02-10T21:29:03.855Z,76.07
2019-02-10T21:31:57.665Z,66.87
2019-02-10T21:34:51.592Z,75.97
2019-02-10T21:37:48.555Z,67.27
2019-02-10T21:40:39.990Z,70.43
2019-02-10T21:43:29.534Z,65.83
2019-02-10T21:46:22.488Z,64.20
2019-02-10T21:49:05.081Z,69.67
2019-02-10T21:51:36.300Z,69.43
2019-02-10T21:54:07.464Z,71.90
2019-02-10T21:56:38.949Z,77.07
2019-02-10T21:59:09.935Z,76.03
2019-02-10T22:01:41.536Z,77.87
2019-02-10T22:04:13.486Z,77.70
2019-02-10T22:06:45.921Z,68.60
2019-02-10T22:09:18.411Z,77.70
2019-02-10T22:11:50.016Z,73.23
2019-02-10T22:14:22.599Z,72.97
2019-02-10T22:17:00.145Z,80.97
2019-02-10T22:19:32.325Z,71.00
2019-02-10T22:22:05.555Z,76.53
2019-02-10T22:24:38.956Z,71.03
2019-02-10T22:27:10.899Z,67.93
2019-02-10T22:29:42.269Z,67.13
2019-02-10T22:32:14.124Z,72.07
2019-02-10T22:34:46.204Z,86.57
2019-02-10T22:37:18.320Z,92.03
2019-02-10T22:39:49.821Z,92.00
2019-02-10T22:42:21.674Z,81.17
2019-02-10T22:44:54.220Z,88.27
2019-02-10T22:47:26.068Z,78.67
2019-02-10T22:49:58.243Z,80.63
2019-02-10T22:52:30.102Z,83.73
2019-02-10T22:55:02.198Z,76.93
2019-02-10T22:57:34.310Z,81.53
2019-02-10T23:00:11.876Z,84.33
2019-02-10T23:02:44.609Z,68.23
2019-02-10T23:05:16.942Z,70.00
2019-02-10T23:07:48.387Z,66.57
2019-02-10T23:10:21.767Z,80.33
2019-02-10T23:12:53.988Z,77.37
2019-02-10T23:15:25.895Z,78.13
2019-02-10T23:17:57.694Z,76.13
2019-02-10T23:20:29.405Z,77.50
2019-02-10T23:23:01.684Z,79.97
2019-02-10T23:25:34.329Z,86.30
2019-02-10T23:28:05.881Z,76.47
2019-02-10T23:30:38.852Z,79.17
2019-02-10T23:33:10.598Z,83.47
2019-02-10T23:35:42.695Z,78.70
2019-02-10T23:38:14.995Z,69.53
2019-02-10T23:40:46.781Z,66.47
2019-02-10T23:43:19.302Z,71.63
2019-02-10T23:45:50.822Z,67.63
2019-02-10T23:48:22.947Z,68.73
2019-02-10T23:50:54.675Z,74.07
2019-02-10T23:53:25.830Z,72.60
2019-02-10T23:55:57.418Z,63.90
2019-02-10T23:58:29.039Z,64.07
